Weather at Olympic Dam Airport

Public forecast

Using degrees Celsius for public forecast. Weather courtesy of forecast.io.

Current aviation weather report (METAR) for Olympic Dam Airport

Retrieved 2021/06/13 10:00 UTC (27 minutes ago):

YOLD 131000Z AUTO 02005KT 9999 // BKN098 16/M00 Q1012

Closest aviation forecast (TAF) to Olympic Dam Airport

Closest forecast is Woomera Airfield, 39.7 nm (73.5 km) S. Retrieved 2021/06/13 06:00 UTC (4 hours ago):

TAF YPWR 130525Z 1306/1400 02014KT 9999 -SHRA FEW050 FM131500 01007KT 9999 -SHRA FEW050